METAR Data
IDs: Format: Raw Decoded Include TAF

Data at: 0453 UTC 26 Sep 2018

KSRB 260435Z AUTO 18004KT 10SM FEW035 BKN060 OVC075 22/22 A3007 RMK A01
KSRB 260415Z AUTO 19008G13KT 9SM FEW003 SCT016 BKN025 22/22 A3008 RMK A01
KSRB 260355Z AUTO 20008KT 170V230 6SM BR FEW004 SCT012 BKN017 22/22 A3009 RMK A01 P0010
KSRB 260335Z AUTO 17004KT 4SM BR FEW025 BKN036 OVC044 22/22 A3009 RMK A01
KSRB 260315Z AUTO 18004KT 10SM FEW004 BKN040 OVC048 22/21 A3009 RMK A01
KSRB 260255Z AUTO 18009KT 2 1/2SM BR SCT003 BKN029 OVC044 22/21 A3009 RMK A01 P0009
KSRB 260235Z AUTO 19011KT 5SM BR FEW009 SCT014 OVC034 23/22 A3009 RMK A01
KSRB 260215Z AUTO 17007KT 9SM BKN036 BKN044 OVC050 23/22 A3008 RMK A01
KSRB 260155Z AUTO 17005KT 10SM FEW022 SCT033 BKN043 23/22 A3008 RMK A01 P0014
KSRB 260135Z AUTO 19005KT 10SM SCT022 BKN031 OVC070 23/22 A3008 RMK A01
KSRB 260115Z AUTO VRB06KT 5SM BR SCT003 BKN034 OVC080 23/22 A3008 RMK A01
KSRB 260055Z AUTO 19008G15KT 1/4SM FG OVC003 23/22 A3008 RMK A01 P0089
KSRB 260035Z AUTO 23007KT 8SM BKN034 OVC042 24/22 A3006 RMK A01
KSRB 260015Z AUTO 00000KT 10SM SCT033 SCT042 BKN050 24/22 A3004 RMK A01
KSRB 252355Z AUTO 14004KT 10SM FEW040 BKN055 BKN075 24/22 A3002 RMK A01
KSRB 252335Z AUTO 10004KT 10SM SCT031 BKN044 OVC075 24/22 A3003 RMK A01
KSRB 252315Z AUTO 00000KT 10SM BKN030 OVC039 24/22 A3004 RMK A01
KSRB 252255Z AUTO 31005KT 10SM SCT034 BKN050 OVC085 26/22 A3003 RMK A01
KSRB 252235Z AUTO 17008KT 140V200 10SM FEW036 FEW065 BKN080 26/22 A3002 RMK A01
KSRB 252215Z AUTO 16004KT 10SM SCT039 BKN065 OVC090 26/22 A3002 RMK A01
KSRB 252155Z AUTO 16006KT 10SM SCT038 SCT055 BKN090 27/22 A3002 RMK A01
KSRB 252135Z AUTO 16005KT 10SM FEW042 BKN080 BKN090 27/22 A3003 RMK A01
KSRB 252115Z AUTO 16005KT 10SM FEW036 SCT042 BKN048 27/22 A3003 RMK A01
KSRB 252055Z AUTO VRB05KT 10SM SCT034 BKN041 OVC080 27/22 A3004 RMK A01
KSRB 252035Z AUTO 17009KT 10SM SCT034 BKN042 OVC075 28/22 A3004 RMK A01
KSRB 252015Z AUTO 17010G16KT 10SM FEW034 SCT044 BKN060 28/21 A3004 RMK A01
KSRB 251955Z AUTO 18010KT 10SM FEW039 BKN055 BKN065 28/22 A3005 RMK A01
KSRB 251935Z AUTO 19010G17KT 10SM FEW035 SCT055 BKN075 29/21 A3005 RMK A01
KSRB 251915Z AUTO 19011G16KT 10SM FEW031 SCT043 BKN049 28/21 A3006 RMK A01
KSRB 251855Z AUTO 18009G14KT 10SM BKN031 BKN045 BKN060 28/22 A3007 RMK A01
KSRB 251835Z AUTO 19011KT 10SM BKN033 BKN041 OVC075 28/21 A3008 RMK A01
KSRB 251815Z AUTO 20011G16KT 10SM SCT033 BKN050 BKN060 28/21 A3009 RMK A01
KSRB 251755Z AUTO 21007G16KT 10SM FEW029 FEW042 SCT055 28/22 A3010 RMK A01
KSRB 251735Z AUTO 21013G18KT 10SM FEW027 SCT036 BKN100 28/22 A3010 RMK A01
KSRB 251715Z AUTO 18008KT 10SM SCT028 BKN035 BKN048 27/22 A3011 RMK A01
KSRB 251655Z AUTO 19009G14KT 10SM SCT025 BKN030 OVC090 27/22 A3011 RMK A01
KSRB 251635Z AUTO 18006G15KT 10SM SCT025 BKN031 OVC090 26/22 A3012 RMK A01
KSRB 251615Z AUTO 18010KT 10SM FEW025 SCT032 BKN038 26/22 A3012 RMK A01
KSRB 251555Z AUTO 17007G13KT 10SM SCT021 BKN026 OVC033 25/22 A3013 RMK A01
KSRB 251535Z AUTO 17008KT 10SM SCT019 BKN024 OVC037 25/22 A3013 RMK A01
KSRB 251515Z AUTO VRB04G12KT 10SM BKN020 OVC025 25/22 A3013 RMK A01
KSRB 251455Z AUTO 17006G13KT 10SM BKN023 BKN028 25/22 A3013 RMK A01
KSRB 251435Z AUTO 17007KT 10SM FEW014 FEW021 SCT034 24/21 A3013 RMK A01
KSRB 251415Z AUTO 17010KT 10SM BKN034 BKN042 BKN050 24/21 A3013 RMK A01
KSRB 251355Z AUTO 16006G11KT 10SM FEW036 SCT048 BKN055 23/21 A3013 RMK A01
KSRB 251335Z AUTO 17007KT 10SM FEW037 BKN047 BKN075 22/21 A3013 RMK A01
KSRB 251315Z AUTO VRB06KT 140V200 10SM SCT039 BKN075 OVC085 22/21 A3013 RMK A01
KSRB 251255Z AUTO 17005KT 10SM FEW021 BKN039 OVC070 22/20 A3013 RMK A01
KSRB 251235Z AUTO 17007KT 10SM FEW042 BKN049 OVC065 22/20 A3013 RMK A01
KSRB 251215Z AUTO 16005G11KT 10SM SCT042 BKN050 BKN055 22/20 A3012 RMK A01
KSRB 251155Z AUTO 18006KT 10SM FEW029 FEW042 SCT050 21/20 A3012 RMK A01
KSRB 251135Z AUTO 17007KT 140V200 10SM FEW037 FEW050 FEW055 21/20 A3011 RMK A01
KSRB 251115Z AUTO 17009KT 10SM FEW036 SCT044 SCT050 21/20 A3010 RMK A01
KSRB 251055Z AUTO 17005G11KT 10SM FEW044 SCT050 SCT075 21/20 A3010 RMK A01
KSRB 251035Z AUTO 16007KT 10SM SCT044 BKN049 BKN055 21/20 A3010 RMK A01
KSRB 251015Z AUTO 19008KT 10SM FEW022 FEW038 SCT045 21/20 A3010 RMK A01
KSRB 250955Z AUTO 18008G13KT 10SM FEW040 SCT048 BKN120 21/20 A3010 RMK A01
KSRB 250935Z AUTO 18008KT 10SM FEW045 FEW050 OVC120 21/20 A3010 RMK A01
KSRB 250915Z AUTO 16009KT 10SM FEW055 OVC110 21/20 A3009 RMK A01
KSRB 250855Z AUTO 17005G10KT 10SM FEW017 SCT055 OVC110 21/20 A3010 RMK A01
KSRB 250835Z AUTO 18007KT 10SM FEW018 BKN050 OVC100 21/20 A3010 RMK A01
KSRB 250815Z AUTO 18008KT 10SM BKN048 OVC090 21/20 A3010 RMK A01
KSRB 250755Z AUTO 18005KT 10SM FEW065 SCT075 OVC090 21/20 A3010 RMK A01
KSRB 250735Z AUTO 17006G13KT 10SM FEW035 SCT055 BKN065 21/20 A3009 RMK A01
KSRB 250715Z AUTO 16004KT 10SM FEW018 SCT034 BKN065 21/20 A3009 RMK A01
KSRB 250655Z AUTO VRB04KT 5SM BR SCT020 SCT046 OVC080 21/20 A3010 RMK A01 P0001
KSRB 250635Z AUTO 17005KT 10SM FEW039 BKN075 OVC085 22/20 A3010 RMK A01
KSRB 250615Z AUTO 19005KT 10SM SCT070 OVC085 22/20 A3010 RMK A01
KSRB 250555Z AUTO 19007KT 10SM FEW050 BKN070 OVC085 22/20 A3010 RMK A01
KSRB 250535Z AUTO 19007G15KT 10SM BKN041 OVC050 22/20 A3010 RMK A01
KSRB 250515Z AUTO 17009KT 10SM SCT039 BKN044 OVC120 22/20 A3009 RMK A01
KSRB 250455Z AUTO 17008G13KT 140V200 10SM FEW043 SCT065 BKN120 22/20 A3009 RMK A01
KSRB 250435Z AUTO 17006KT 10SM BKN060 OVC070 22/20 A3010 RMK A01
KSRB 250415Z AUTO 17007G13KT 10SM FEW020 SCT070 BKN120 22/20 A3010 RMK A01
KSRB 250355Z AUTO 17007KT 140V200 10SM SCT024 OVC110 22/20 A3010 RMK A01
KSRB 250335Z AUTO 16006KT 10SM FEW050 FEW075 BKN110 22/20 A3010 RMK A01
KSRB 250315Z AUTO 17005KT 10SM SCT050 BKN070 OVC110 22/20 A3010 RMK A01
KSRB 250255Z AUTO 17004KT 10SM FEW055 BKN070 OVC085 22/21 A3010 RMK A01
KSRB 250235Z AUTO 14004KT 10SM FEW028 SCT049 BKN075 21/21 A3009 RMK A01
KSRB 250215Z AUTO 00000KT 10SM FEW019 SCT047 BKN075 21/21 A3009 RMK A01
KSRB 250155Z AUTO 13004KT 8SM FEW020 SCT031 BKN048 21/21 A3008 RMK A01 P0005
KSRB 250135Z AUTO 18005KT 9SM FEW021 BKN048 OVC060 22/21 A3009 RMK A01
KSRB 250115Z AUTO 16003KT 10SM FEW003 SCT015 BKN021 22/21 A3008 RMK A01
KSRB 250055Z AUTO 21004KT 3SM BR SCT003 BKN015 OVC026 21/21 A3009 RMK A01 P0070
KSRB 250035Z AUTO 22007G13KT 3/4SM BR OVC003 21/21 A3007 RMK A01
KSRB 250015Z AUTO 01008KT 4SM BR FEW012 BKN017 OVC045 21/21 A3006 RMK A01
KSRB 242355Z AUTO 00000KT 4SM BR FEW006 SCT029 BKN040 21/21 A3006 RMK A01 P0014
KSRB 242335Z AUTO 00000KT 3SM BR FEW007 SCT027 BKN033 21/21 A3007 RMK A01
KSRB 242315Z AUTO 00000KT 7SM BKN044 OVC065 22/20 A3007 RMK A01
KSRB 242255Z AUTO 00000KT 9SM BKN055 OVC065 22/20 A3006 RMK A01 P0001
KSRB 242235Z AUTO 12005KT 10SM FEW043 OVC050 22/20 A3005 RMK A01
KSRB 242215Z AUTO 12003KT 10SM FEW043 BKN049 BKN065 23/20 A3005 RMK A01
KSRB 242155Z AUTO VRB05G11KT 10SM FEW070 23/20 A3005 RMK A01
KSRB 242135Z AUTO 15005KT 10SM FEW070 23/20 A3005 RMK A01
KSRB 242115Z AUTO VRB06G13KT 10SM CLR 23/21 A3005 RMK A01
KSRB 242055Z AUTO 15007G12KT 10SM FEW100 23/21 A3005 RMK A01
KSRB 242035Z AUTO 14008KT 10SM FEW100 23/21 A3005 RMK A01
KSRB 242015Z AUTO 14009KT 10SM FEW085 FEW100 23/21 A3005 RMK A01
KSRB 241955Z AUTO 13006KT 10SM FEW028 SCT032 SCT039 22/21 A3006 RMK A01 P0011
KSRB 241935Z AUTO 11005KT 2SM BR BKN028 BKN038 21/20 A3007 RMK A01
KSRB 241915Z AUTO VRB04KT 2 1/2SM BR FEW003 FEW022 BKN029 21/20 A3007 RMK A01
KSRB 241855Z AUTO 14007KT 3SM BR FEW021 BKN026 BKN033 21/20 A3008 RMK A01 P0003
KSRB 241835Z AUTO 15007KT 130V200 7SM BKN026 OVC033 22/20 A3009 RMK A01
KSRB 241815Z AUTO 15009G15KT 10SM BKN029 BKN034 OVC040 23/20 A3009 RMK A01
KSRB 241755Z AUTO 15008G16KT 10SM SCT027 OVC032 23/20 A3010 RMK A01
KSRB 241735Z AUTO 14006G11KT 10SM FEW023 BKN034 OVC040 23/20 A3011 RMK A01
KSRB 241715Z AUTO VRB06G16KT 10SM SCT019 BKN035 OVC080 23/20 A3011 RMK A01
KSRB 241655Z AUTO 18010G15KT 10SM SCT016 BKN037 OVC046 23/20 A3011 RMK A01